createdAt,value
2019-01-29T00:01:50.294Z,9.33
2019-01-29T00:04:20.315Z,8.80
2019-01-29T00:09:46.970Z,10.03
2019-01-29T00:12:17.090Z,9.23
2019-01-29T00:14:47.211Z,9.40
2019-01-29T00:17:18.557Z,9.70
2019-01-29T00:19:48.676Z,9.03
2019-01-29T00:22:20.435Z,9.20
2019-01-29T00:24:50.277Z,10.13
2019-01-29T00:27:21.440Z,10.10
2019-01-29T00:29:51.321Z,10.43
2019-01-29T00:32:22.685Z,10.90
2019-01-29T00:37:45.624Z,10.70
2019-01-29T00:40:16.709Z,10.17
2019-01-29T00:42:46.913Z,9.77
2019-01-29T00:45:17.968Z,9.40
2019-01-29T00:47:48.622Z,9.37
2019-01-29T00:50:18.680Z,9.40
2019-01-29T00:52:48.905Z,10.30
2019-01-29T00:55:18.919Z,9.73
2019-01-29T00:57:49.242Z,9.33
2019-01-29T01:00:23.957Z,9.87
2019-01-29T01:02:55.626Z,9.70
2019-01-29T01:05:25.642Z,9.70
2019-01-29T01:07:55.968Z,9.17
2019-01-29T01:10:27.520Z,9.63
2019-01-29T01:12:58.205Z,9.37
2019-01-29T01:15:28.171Z,10.03
2019-01-29T01:17:58.599Z,10.43
2019-01-29T01:20:28.612Z,9.20
2019-01-29T01:22:58.732Z,10.93
2019-01-29T01:25:28.850Z,11.90
2019-01-29T01:30:56.232Z,11.27
2019-01-29T01:33:26.187Z,10.60
2019-01-29T01:35:58.205Z,11.27
2019-01-29T01:38:28.428Z,10.97
2019-01-29T01:40:58.547Z,9.87
2019-01-29T01:43:30.252Z,10.27
2019-01-29T01:46:01.346Z,10.33
2019-01-29T01:48:31.469Z,9.47
2019-01-29T01:51:01.482Z,10.07
2019-01-29T01:53:31.806Z,10.07
2019-01-29T01:56:02.952Z,10.20
2019-01-29T01:58:33.273Z,11.23
2019-01-29T02:01:03.495Z,11.07
2019-01-29T02:03:35.356Z,9.67
2019-01-29T02:06:06.602Z,10.83
2019-01-29T02:08:36.926Z,9.07
2019-01-29T02:11:06.958Z,8.90
2019-01-29T02:13:37.062Z,8.73
2019-01-29T02:16:08.231Z,7.90
2019-01-29T02:18:38.355Z,8.43
2019-01-29T02:21:08.405Z,8.23
2019-01-29T02:23:38.504Z,8.00
2019-01-29T02:26:11.142Z,7.80
2019-01-29T02:28:41.505Z,9.27
2019-01-29T02:31:32.475Z,9.13
2019-01-29T02:34:02.765Z,9.37
2019-01-29T02:36:34.902Z,8.67
2019-01-29T02:39:07.206Z,8.90
2019-01-29T02:41:38.430Z,8.27
2019-01-29T02:44:11.881Z,9.77
2019-01-29T02:46:43.228Z,8.80
2019-01-29T02:52:10.602Z,8.43
2019-01-29T02:54:41.030Z,6.43
2019-01-29T02:57:13.809Z,7.20
2019-01-29T02:59:45.567Z,7.20
2019-01-29T03:02:15.508Z,6.53
2019-01-29T03:04:45.603Z,6.90
2019-01-29T03:07:16.992Z,7.60
2019-01-29T03:09:48.741Z,6.90
2019-01-29T03:12:18.802Z,7.10
2019-01-29T03:14:48.950Z,7.47
2019-01-29T03:17:21.627Z,7.80
2019-01-29T03:19:51.939Z,7.87
2019-01-29T03:22:21.970Z,8.23
2019-01-29T03:27:31.972Z,8.33
2019-01-29T03:30:02.363Z,9.27
2019-01-29T03:32:32.482Z,9.63
2019-01-29T03:35:02.730Z,8.13
2019-01-29T03:37:44.393Z,9.50
2019-01-29T03:40:17.012Z,9.63
2019-01-29T03:42:46.892Z,10.93
2019-01-29T03:45:17.576Z,9.40
2019-01-29T03:47:47.568Z,10.43
2019-01-29T03:50:22.515Z,10.83
2019-01-29T03:52:52.485Z,9.97
2019-01-29T03:55:23.107Z,11.40
2019-01-29T03:57:54.667Z,11.73
2019-01-29T04:00:26.657Z,11.43
2019-01-29T04:02:56.646Z,11.83
2019-01-29T04:05:26.770Z,11.30
2019-01-29T04:07:56.784Z,11.27
2019-01-29T04:10:28.542Z,11.60
2019-01-29T04:12:59.993Z,11.77
2019-01-29T04:15:30.216Z,11.30
2019-01-29T04:18:00.236Z,11.00
2019-01-29T04:20:31.893Z,11.43
2019-01-29T04:23:02.014Z,11.60
2019-01-29T04:25:32.332Z,11.90
2019-01-29T04:28:02.348Z,12.27
2019-01-29T04:30:32.572Z,12.80
2019-01-29T04:33:04.228Z,13.23
2019-01-29T04:35:34.345Z,14.23
2019-01-29T04:38:04.367Z,14.00
2019-01-29T04:40:34.895Z,12.93
2019-01-29T04:43:05.013Z,15.20
2019-01-29T04:45:35.234Z,14.87
2019-01-29T04:48:05.152Z,15.50
2019-01-29T04:50:35.677Z,14.50
2019-01-29T04:53:17.748Z,14.27
2019-01-29T04:55:48.920Z,15.10
2019-01-29T04:58:19.042Z,15.00
2019-01-29T05:00:49.261Z,16.03
2019-01-29T05:03:19.277Z,17.13
2019-01-29T05:05:50.558Z,15.63
2019-01-29T05:08:20.540Z,16.50
2019-01-29T05:10:50.559Z,15.77
2019-01-29T05:13:22.213Z,16.23
2019-01-29T05:15:53.843Z,15.67
2019-01-29T05:18:21.221Z,16.03
2019-01-29T05:20:51.361Z,14.73
2019-01-29T05:23:21.564Z,14.90
2019-01-29T05:25:52.708Z,15.53
2019-01-29T05:28:23.133Z,13.90
2019-01-29T05:30:53.457Z,14.47
2019-01-29T05:33:23.679Z,12.77
2019-01-29T05:35:54.745Z,14.57
2019-01-29T05:38:26.206Z,13.97
2019-01-29T05:40:56.290Z,13.43
2019-01-29T05:43:26.410Z,14.30
2019-01-29T05:45:58.577Z,13.37
2019-01-29T05:48:28.806Z,14.40
2019-01-29T05:51:00.455Z,29.87
2019-01-29T05:53:30.778Z,21.70
2019-01-29T05:56:02.026Z,16.07
2019-01-29T05:58:32.046Z,14.00
2019-01-29T06:01:02.298Z,13.43
2019-01-29T06:03:32.587Z,14.20
2019-01-29T06:06:04.043Z,12.67
2019-01-29T06:08:34.157Z,13.60
2019-01-29T06:11:04.584Z,13.70
2019-01-29T06:13:34.707Z,14.33
2019-01-29T06:16:05.949Z,13.67
2019-01-29T06:18:36.070Z,13.40
2019-01-29T06:21:06.194Z,14.50
2019-01-29T06:23:36.205Z,13.23
2019-01-29T06:26:09.090Z,14.33
2019-01-29T06:28:40.577Z,13.63
2019-01-29T06:31:10.864Z,15.03
2019-01-29T06:33:41.077Z,14.87
2019-01-29T06:36:12.331Z,14.77
2019-01-29T06:38:43.475Z,15.57
2019-01-29T06:41:13.799Z,15.37
2019-01-29T06:43:43.860Z,14.40
2019-01-29T06:46:15.062Z,14.63
2019-01-29T06:48:45.213Z,14.87
2019-01-29T06:51:15.710Z,15.13
2019-01-29T06:53:46.001Z,33.57
2019-01-29T06:56:18.326Z,25.60
2019-01-29T06:58:48.527Z,17.90
2019-01-29T07:01:18.877Z,15.93
2019-01-29T07:03:49.893Z,15.50
2019-01-29T07:06:21.137Z,15.00
2019-01-29T07:08:51.153Z,13.87
2019-01-29T07:11:21.478Z,16.13
2019-01-29T07:13:51.598Z,14.60
2019-01-29T07:16:27.175Z,13.27
2019-01-29T07:18:58.802Z,12.27
2019-01-29T07:21:29.025Z,22.40
2019-01-29T07:24:00.680Z,22.40
2019-01-29T07:26:32.025Z,17.10
2019-01-29T07:29:02.042Z,13.97
2019-01-29T07:31:32.572Z,13.13
2019-01-29T07:34:02.793Z,12.77
2019-01-29T07:36:34.041Z,11.47
2019-01-29T07:39:08.264Z,13.60
2019-01-29T07:41:38.374Z,11.50
2019-01-29T07:44:11.948Z,13.00
2019-01-29T07:46:43.119Z,13.07
2019-01-29T07:49:16.414Z,11.80
2019-01-29T07:51:46.535Z,13.33
2019-01-29T07:54:16.679Z,13.27
2019-01-29T07:56:52.300Z,13.10
2019-01-29T07:59:32.433Z,12.90
2019-01-29T08:01:54.178Z,12.37
2019-01-29T08:04:24.297Z,13.20
2019-01-29T08:06:56.465Z,13.10
2019-01-29T08:09:26.481Z,12.97
2019-01-29T08:11:56.601Z,17.77
2019-01-29T08:14:28.463Z,16.37
2019-01-29T08:17:00.117Z,14.53
2019-01-29T08:19:30.134Z,13.57
2019-01-29T08:22:00.493Z,12.90
2019-01-29T08:24:30.666Z,13.47
2019-01-29T08:27:01.823Z,13.17
2019-01-29T08:29:44.786Z,14.25
2019-01-29T08:32:17.115Z,14.13
2019-01-29T08:34:47.644Z,14.93
2019-01-29T08:37:20.527Z,12.47
2019-01-29T08:39:53.617Z,13.08
2019-01-29T08:42:24.454Z,13.80
2019-01-29T08:44:55.087Z,13.50
2019-01-29T08:47:28.509Z,13.70
2019-01-29T08:49:58.916Z,12.95
2019-01-29T08:52:29.360Z,12.65
2019-01-29T08:54:59.739Z,12.85
2019-01-29T08:57:31.287Z,12.65
2019-01-29T09:02:48.148Z,11.68
2019-01-29T09:05:18.729Z,15.45
2019-01-29T09:07:49.196Z,14.58
2019-01-29T09:10:21.594Z,14.73
2019-01-29T09:12:52.055Z,11.97
2019-01-29T09:15:22.509Z,12.45
2019-01-29T09:17:52.968Z,12.58
2019-01-29T09:20:23.810Z,14.18
2019-01-29T09:22:54.284Z,12.55
2019-01-29T09:25:24.741Z,13.53
2019-01-29T09:27:55.528Z,12.20
2019-01-29T09:30:25.880Z,12.40
2019-01-29T09:32:56.413Z,13.78
2019-01-29T09:35:26.851Z,21.73
2019-01-29T09:37:57.570Z,16.85
2019-01-29T09:40:28.966Z,13.43
2019-01-29T09:42:59.535Z,14.00
2019-01-29T09:45:29.905Z,13.40
2019-01-29T09:48:00.378Z,12.20
2019-01-29T09:50:30.814Z,13.40
2019-01-29T09:53:01.325Z,13.93
2019-01-29T09:55:31.805Z,13.48
2019-01-29T09:58:02.372Z,12.98
2019-01-29T10:00:35.180Z,13.28
2019-01-29T10:03:06.127Z,12.98
2019-01-29T10:05:36.697Z,11.65
2019-01-29T10:08:07.281Z,12.65
2019-01-29T10:10:37.759Z,12.45
2019-01-29T10:13:08.352Z,13.13
2019-01-29T10:15:38.824Z,13.40
2019-01-29T10:18:09.402Z,13.85
2019-01-29T10:20:39.887Z,14.13
2019-01-29T10:23:10.478Z,14.68
2019-01-29T10:25:42.101Z,15.15
2019-01-29T10:28:12.711Z,15.83
2019-01-29T10:30:43.179Z,15.28
2019-01-29T10:33:13.819Z,16.00
2019-01-29T10:35:56.912Z,14.28
2019-01-29T10:38:27.453Z,15.18
2019-01-29T10:40:58.805Z,14.45
2019-01-29T10:43:28.771Z,15.40
2019-01-29T10:45:59.661Z,16.47
2019-01-29T10:48:29.660Z,16.73
2019-01-29T10:50:59.556Z,15.30
2019-01-29T10:53:29.624Z,16.70
2019-01-29T10:56:00.641Z,16.57
2019-01-29T10:58:30.646Z,17.10
2019-01-29T11:01:00.544Z,16.97
2019-01-29T11:03:30.702Z,16.63
2019-01-29T11:06:01.741Z,16.57
2019-01-29T11:08:31.740Z,16.53
2019-01-29T11:11:01.628Z,16.50
2019-01-29T11:13:31.608Z,18.40
2019-01-29T11:16:02.604Z,17.23
2019-01-29T11:18:32.590Z,16.77
2019-01-29T11:21:02.477Z,18.00
2019-01-29T11:23:36.628Z,18.63
2019-01-29T11:26:07.609Z,16.63
2019-01-29T11:28:37.611Z,17.30
2019-01-29T11:31:07.519Z,17.33
2019-01-29T11:33:37.583Z,16.13
2019-01-29T11:36:08.821Z,17.00
2019-01-29T11:38:39.146Z,17.00
2019-01-29T11:41:11.725Z,18.10
2019-01-29T11:43:41.947Z,15.17
2019-01-29T11:46:12.303Z,18.30
2019-01-29T11:51:23.569Z,17.97
2019-01-29T11:53:53.790Z,17.80
2019-01-29T11:56:23.741Z,17.43
2019-01-29T11:58:53.817Z,18.17
2019-01-29T12:01:23.941Z,17.90
2019-01-29T12:03:54.159Z,17.30
2019-01-29T12:06:27.749Z,16.70
2019-01-29T12:08:58.186Z,18.37
2019-01-29T12:11:29.872Z,16.83
2019-01-29T12:14:01.604Z,16.80
2019-01-29T12:16:32.849Z,16.70
2019-01-29T12:21:44.493Z,14.87
2019-01-29T12:24:19.880Z,15.93
2019-01-29T12:26:53.144Z,14.57
2019-01-29T12:29:23.765Z,14.70
2019-01-29T12:31:54.595Z,15.33
2019-01-29T12:34:45.676Z,15.43
2019-01-29T12:37:16.195Z,15.70
2019-01-29T12:39:48.261Z,14.00
2019-01-29T12:42:20.782Z,13.83
2019-01-29T12:47:32.545Z,14.43
2019-01-29T12:50:04.003Z,15.33
2019-01-29T12:52:46.650Z,15.03
2019-01-29T12:55:16.759Z,16.30
2019-01-29T12:57:46.759Z,14.73
2019-01-29T13:00:19.990Z,15.10
2019-01-29T13:02:49.851Z,15.33
2019-01-29T13:05:19.969Z,17.57
2019-01-29T13:07:50.020Z,15.97
2019-01-29T13:10:24.471Z,17.30
2019-01-29T13:12:54.355Z,16.30
2019-01-29T13:15:32.660Z,16.40
2019-01-29T13:18:02.901Z,15.33
2019-01-29T13:20:33.077Z,15.93
2019-01-29T13:23:03.096Z,15.87
2019-01-29T13:25:33.417Z,15.00
2019-01-29T13:28:03.412Z,16.17
2019-01-29T13:30:39.506Z,16.27
2019-01-29T13:33:11.558Z,14.90
2019-01-29T13:35:42.959Z,15.90
2019-01-29T13:38:12.819Z,16.00
2019-01-29T13:40:43.150Z,16.00
2019-01-29T13:43:13.105Z,16.30
2019-01-29T13:45:44.306Z,16.57
2019-01-29T13:48:14.247Z,15.87
2019-01-29T13:50:51.609Z,16.07
2019-01-29T13:53:23.676Z,17.00
2019-01-29T13:55:55.025Z,16.60
2019-01-29T13:58:25.450Z,15.13
2019-01-29T14:00:56.695Z,17.47
2019-01-29T14:03:26.919Z,16.90
2019-01-29T14:05:58.350Z,15.10
2019-01-29T14:08:28.515Z,14.07
2019-01-29T14:10:58.609Z,15.17
2019-01-29T14:13:28.660Z,16.23
2019-01-29T14:15:59.870Z,17.17
2019-01-29T14:18:29.889Z,16.90
2019-01-29T14:21:00.008Z,17.07
2019-01-29T14:23:30.212Z,19.00
2019-01-29T14:26:01.475Z,19.40
2019-01-29T14:28:31.594Z,18.43
2019-01-29T14:31:01.847Z,17.93
2019-01-29T14:33:31.935Z,18.73
2019-01-29T14:36:03.345Z,18.50
2019-01-29T14:38:51.216Z,17.63
2019-01-29T14:41:21.135Z,16.53
2019-01-29T14:43:52.186Z,18.37
2019-01-29T14:46:23.275Z,17.70
2019-01-29T14:48:53.443Z,18.23
2019-01-29T14:51:23.789Z,17.07
2019-01-29T14:53:53.917Z,16.50
2019-01-29T14:56:26.184Z,15.87
2019-01-29T14:58:56.377Z,15.60
2019-01-29T15:01:26.598Z,14.70
2019-01-29T15:03:56.510Z,15.10
2019-01-29T15:06:32.244Z,15.87
2019-01-29T15:08:58.660Z,15.50
2019-01-29T15:11:29.276Z,16.90
2019-01-29T15:13:59.374Z,16.47
2019-01-29T15:16:31.921Z,16.00
2019-01-29T15:19:11.678Z,16.40
2019-01-29T15:21:41.567Z,16.07
2019-01-29T15:24:11.323Z,17.97
2019-01-29T15:26:42.193Z,17.37
2019-01-29T15:29:11.955Z,17.73
2019-01-29T15:31:41.798Z,18.97
2019-01-29T15:34:11.615Z,20.77
2019-01-29T15:36:44.147Z,19.57
2019-01-29T15:39:13.986Z,23.17
2019-01-29T15:41:44.078Z,18.73
2019-01-29T15:44:15.163Z,20.57
2019-01-29T15:46:46.493Z,18.43
2019-01-29T15:49:16.684Z,20.13
2019-01-29T15:51:46.699Z,19.87
2019-01-29T15:54:16.924Z,19.73
2019-01-29T15:56:46.941Z,19.10
2019-01-29T15:59:17.372Z,19.63
2019-01-29T16:01:48.614Z,19.40
2019-01-29T16:04:19.303Z,19.73
2019-01-29T16:06:50.692Z,20.47
2019-01-29T16:09:20.841Z,21.10
2019-01-29T16:11:51.037Z,20.20
2019-01-29T16:14:21.477Z,22.60
2019-01-29T16:16:52.470Z,21.00
2019-01-29T16:19:22.623Z,20.87
2019-01-29T16:21:52.536Z,20.17
2019-01-29T16:24:23.064Z,20.10
2019-01-29T16:26:54.107Z,22.37
2019-01-29T16:29:24.459Z,20.03
2019-01-29T16:31:54.250Z,20.47
2019-01-29T16:34:24.126Z,20.60
2019-01-29T16:36:56.033Z,21.73
2019-01-29T16:39:25.984Z,21.67
2019-01-29T16:41:55.748Z,20.93
2019-01-29T16:44:26.660Z,19.03
2019-01-29T16:46:57.612Z,20.17
2019-01-29T16:49:27.454Z,20.93
2019-01-29T16:51:57.226Z,20.97
2019-01-29T16:54:27.087Z,21.40
2019-01-29T16:56:56.929Z,20.70
2019-01-29T16:59:26.802Z,20.43
2019-01-29T17:01:56.637Z,19.23
2019-01-29T17:04:28.331Z,21.37
2019-01-29T17:06:59.049Z,22.23
2019-01-29T17:09:28.905Z,21.53
2019-01-29T17:11:58.752Z,26.20
2019-01-29T17:14:28.544Z,28.40
2019-01-29T17:16:59.413Z,38.60
2019-01-29T17:19:29.209Z,39.13
2019-01-29T17:21:59.165Z,36.87
2019-01-29T17:24:28.936Z,33.80
2019-01-29T17:27:00.004Z,30.27
2019-01-29T17:29:29.777Z,28.77
2019-01-29T17:31:59.618Z,26.10
2019-01-29T17:34:29.392Z,25.43
2019-01-29T17:37:00.493Z,28.73
2019-01-29T17:39:30.285Z,34.00
2019-01-29T17:42:00.253Z,30.47
2019-01-29T17:44:31.746Z,32.43
2019-01-29T17:47:02.689Z,26.20
2019-01-29T17:49:32.492Z,25.33
2019-01-29T17:52:02.351Z,25.63
2019-01-29T17:54:33.183Z,25.77
2019-01-29T17:57:04.105Z,24.37
2019-01-29T17:59:33.880Z,24.70
2019-01-29T18:02:04.455Z,28.77
2019-01-29T18:04:34.321Z,64.67
2019-01-29T18:07:05.306Z,37.97
2019-01-29T18:09:35.075Z,36.60
2019-01-29T18:12:04.911Z,39.80
2019-01-29T18:14:34.862Z,28.03
2019-01-29T18:17:05.707Z,26.90
2019-01-29T18:19:35.778Z,27.43
2019-01-29T18:22:05.536Z,47.27
2019-01-29T18:24:35.420Z,79.50
2019-01-29T18:27:06.264Z,33.83
2019-01-29T18:29:36.178Z,26.20
2019-01-29T18:32:07.077Z,27.03
2019-01-29T18:34:37.056Z,32.37
2019-01-29T18:37:08.031Z,30.80
2019-01-29T18:39:37.975Z,30.33
2019-01-29T18:42:07.790Z,29.37
2019-01-29T18:44:38.580Z,27.93
2019-01-29T18:47:09.477Z,27.67
2019-01-29T18:49:39.350Z,47.70
2019-01-29T18:52:09.117Z,30.60
2019-01-29T18:54:38.959Z,27.10
2019-01-29T18:57:10.868Z,24.70
2019-01-29T18:59:40.661Z,23.93
2019-01-29T19:02:10.527Z,27.27
2019-01-29T19:04:40.331Z,28.50
2019-01-29T19:07:10.526Z,27.50
2019-01-29T19:09:52.916Z,26.23
2019-01-29T19:12:23.118Z,30.73
2019-01-29T19:14:52.992Z,28.93
2019-01-29T19:17:24.125Z,26.13
2019-01-29T19:19:56.289Z,25.73
2019-01-29T19:22:27.706Z,24.77
2019-01-29T19:24:57.718Z,24.90
2019-01-29T19:27:27.637Z,26.10
2019-01-29T19:29:57.406Z,23.97
2019-01-29T19:32:27.346Z,25.70
2019-01-29T19:34:57.129Z,25.67
2019-01-29T19:37:28.238Z,26.03
2019-01-29T19:39:58.077Z,25.17
2019-01-29T19:42:30.463Z,23.43
2019-01-29T19:45:04.557Z,23.27
2019-01-29T19:47:35.970Z,23.83
2019-01-29T19:53:09.454Z,22.97
2019-01-29T19:55:41.826Z,25.60
2019-01-29T19:58:12.451Z,24.37
2019-01-29T20:00:42.798Z,25.97
2019-01-29T20:03:12.976Z,25.83
2019-01-29T20:05:44.160Z,26.20
2019-01-29T20:08:14.385Z,24.23
2019-01-29T20:10:44.574Z,24.03
2019-01-29T20:13:15.002Z,25.53
2019-01-29T20:15:46.884Z,26.30
2019-01-29T20:18:36.639Z,25.33
2019-01-29T20:21:07.065Z,26.97
2019-01-29T20:23:37.493Z,29.63
2019-01-29T20:26:07.816Z,26.63
2019-01-29T20:28:42.575Z,25.63
2019-01-29T20:31:09.945Z,27.97
2019-01-29T20:33:40.428Z,25.57
2019-01-29T20:36:11.964Z,27.10
2019-01-29T20:38:42.561Z,25.70
2019-01-29T20:41:13.342Z,27.97
2019-01-29T20:43:44.591Z,28.75
2019-01-29T20:46:16.146Z,27.93
2019-01-29T20:48:47.060Z,30.50
2019-01-29T20:51:17.374Z,27.43
2019-01-29T20:53:47.527Z,26.90
2019-01-29T20:56:59.675Z,27.20
2019-01-29T21:02:09.700Z,28.10
2019-01-29T21:04:41.433Z,30.50
2019-01-29T21:07:11.579Z,28.27
2019-01-29T21:09:42.017Z,26.83
2019-01-29T21:12:12.022Z,27.87
2019-01-29T21:14:42.448Z,29.90
2019-01-29T21:17:13.593Z,30.67
2019-01-29T21:19:43.770Z,29.27
2019-01-29T21:22:15.091Z,25.60
2019-01-29T21:24:46.054Z,24.73
2019-01-29T21:27:28.990Z,25.33
2019-01-29T21:30:01.725Z,27.47
2019-01-29T21:32:32.022Z,26.77
2019-01-29T21:37:58.069Z,26.87
2019-01-29T21:40:30.345Z,27.63
2019-01-29T21:43:01.954Z,27.87
2019-01-29T21:45:32.996Z,25.73
2019-01-29T21:48:03.283Z,26.17
2019-01-29T21:50:34.926Z,26.90
2019-01-29T21:53:05.029Z,27.83
2019-01-29T21:55:35.697Z,30.00
2019-01-29T21:58:06.052Z,32.23
2019-01-29T22:00:41.535Z,29.63
2019-01-29T22:03:11.736Z,28.87
2019-01-29T22:05:42.501Z,29.50
2019-01-29T22:08:12.949Z,31.03
2019-01-29T22:10:43.344Z,30.07
2019-01-29T22:13:13.713Z,29.23
2019-01-29T22:15:43.717Z,29.83
2019-01-29T22:18:13.962Z,31.63
2019-01-29T22:23:39.641Z,29.80
2019-01-29T22:26:10.890Z,34.87
2019-01-29T22:28:41.034Z,32.13
2019-01-29T22:31:11.332Z,30.10
2019-01-29T22:33:41.248Z,28.57
2019-01-29T22:36:11.469Z,28.07
2019-01-29T22:38:41.793Z,26.67
2019-01-29T22:41:12.015Z,29.47
2019-01-29T22:43:42.271Z,32.27
2019-01-29T22:48:59.460Z,27.80
2019-01-29T22:51:31.213Z,31.30
2019-01-29T22:54:01.249Z,28.90
2019-01-29T22:56:31.182Z,28.30
2019-01-29T22:59:01.042Z,30.97
2019-01-29T23:01:31.953Z,30.37
2019-01-29T23:04:02.396Z,29.40
2019-01-29T23:06:36.631Z,28.77
2019-01-29T23:09:09.510Z,30.20
2019-01-29T23:11:39.553Z,28.87
2019-01-29T23:14:09.417Z,30.03
2019-01-29T23:16:40.282Z,32.23
2019-01-29T23:19:10.055Z,33.47
2019-01-29T23:21:39.900Z,34.73
2019-01-29T23:24:09.715Z,33.40
2019-01-29T23:26:40.549Z,32.63
2019-01-29T23:29:10.512Z,29.73
2019-01-29T23:31:40.287Z,33.63
2019-01-29T23:34:10.142Z,33.20
2019-01-29T23:36:40.942Z,31.97
2019-01-29T23:39:12.412Z,32.17
2019-01-29T23:41:42.633Z,29.20
2019-01-29T23:44:12.510Z,30.37
2019-01-29T23:46:44.420Z,29.77
2019-01-29T23:49:14.290Z,30.03
2019-01-29T23:51:45.157Z,32.20
2019-01-29T23:54:15.036Z,30.93
2019-01-29T23:56:46.030Z,30.13
2019-01-29T23:59:15.939Z,32.80
